createdAt,value
2018-03-02T00:01:25.877Z,7.40
2018-03-02T00:03:51.629Z,6.07
2018-03-02T00:06:17.376Z,6.50
2018-03-02T00:08:43.134Z,6.80
2018-03-02T00:11:08.886Z,7.20
2018-03-02T00:13:34.644Z,6.70
2018-03-02T00:16:00.397Z,6.87
2018-03-02T00:18:26.166Z,6.53
2018-03-02T00:20:51.906Z,6.50
2018-03-02T00:23:17.669Z,6.73
2018-03-02T00:25:43.402Z,6.47
2018-03-02T00:28:09.188Z,5.83
2018-03-02T00:30:34.946Z,6.57
2018-03-02T00:33:00.690Z,6.00
2018-03-02T00:35:26.442Z,6.73
2018-03-02T00:37:52.190Z,6.60
2018-03-02T00:40:17.933Z,4.87
2018-03-02T00:42:43.689Z,6.70
2018-03-02T00:45:09.449Z,5.77
2018-03-02T00:47:35.195Z,5.63
2018-03-02T00:50:00.952Z,6.10
2018-03-02T00:52:26.694Z,6.57
2018-03-02T00:54:52.455Z,6.27
2018-03-02T00:57:18.177Z,6.37
2018-03-02T00:59:43.951Z,6.77
2018-03-02T01:02:09.740Z,6.00
2018-03-02T01:04:35.490Z,6.33
2018-03-02T01:07:01.244Z,6.37
2018-03-02T01:09:27.002Z,5.53
2018-03-02T01:11:52.758Z,6.27
2018-03-02T01:14:18.531Z,6.30
2018-03-02T01:16:44.286Z,6.40
2018-03-02T01:19:10.017Z,6.27
2018-03-02T01:21:35.775Z,5.83
2018-03-02T01:24:01.514Z,6.30
2018-03-02T01:26:27.274Z,6.47
2018-03-02T01:28:53.046Z,6.27
2018-03-02T01:31:18.794Z,6.67
2018-03-02T01:33:44.534Z,6.47
2018-03-02T01:36:10.298Z,7.10
2018-03-02T01:38:36.043Z,6.90
2018-03-02T01:41:01.792Z,7.20
2018-03-02T01:43:27.542Z,6.50
2018-03-02T01:45:53.280Z,6.87
2018-03-02T01:48:19.017Z,7.10
2018-03-02T01:50:44.771Z,7.33
2018-03-02T01:53:10.554Z,6.40
2018-03-02T01:55:36.302Z,7.03
2018-03-02T01:58:02.042Z,47.03
2018-03-02T02:00:27.794Z,7.33
2018-03-02T02:02:53.526Z,8.10
2018-03-02T02:05:19.287Z,8.03
2018-03-02T02:07:45.037Z,9.47
2018-03-02T02:10:10.783Z,10.33
2018-03-02T02:12:36.543Z,12.60
2018-03-02T02:15:02.495Z,8.73
2018-03-02T02:17:28.269Z,8.75
2018-03-02T02:19:54.010Z,7.73
2018-03-02T02:22:19.782Z,11.40
2018-03-02T02:24:45.510Z,12.40
2018-03-02T02:27:11.272Z,11.77
2018-03-02T02:29:37.049Z,9.77
2018-03-02T02:32:02.816Z,11.10
2018-03-02T02:34:28.576Z,8.97
2018-03-02T02:36:54.320Z,8.37
2018-03-02T02:39:20.070Z,7.87
2018-03-02T02:41:45.860Z,9.37
2018-03-02T02:44:11.590Z,8.33
2018-03-02T02:46:37.334Z,8.33
2018-03-02T02:49:03.077Z,8.70
2018-03-02T02:51:28.849Z,8.20
2018-03-02T02:53:54.595Z,8.77
2018-03-02T02:56:20.338Z,7.97
2018-03-02T02:58:46.138Z,7.93
2018-03-02T03:01:11.882Z,9.00
2018-03-02T03:03:37.630Z,8.77
2018-03-02T03:06:03.377Z,8.90
2018-03-02T03:08:29.152Z,9.20
2018-03-02T03:10:54.905Z,9.33
2018-03-02T03:13:20.643Z,9.00
2018-03-02T03:15:46.389Z,9.33
2018-03-02T03:18:12.152Z,9.63
2018-03-02T03:20:37.894Z,8.97
2018-03-02T03:23:03.671Z,8.93
2018-03-02T03:25:29.416Z,9.27
2018-03-02T03:27:55.158Z,9.03
2018-03-02T03:30:20.934Z,9.50
2018-03-02T03:32:46.693Z,8.90
2018-03-02T03:35:12.451Z,9.13
2018-03-02T03:37:38.208Z,9.27
2018-03-02T03:40:04.050Z,9.43
2018-03-02T03:42:29.833Z,9.43
2018-03-02T03:45:02.550Z,9.90
2018-03-02T03:47:28.333Z,9.40
2018-03-02T03:49:54.078Z,9.00
2018-03-02T03:52:19.821Z,9.57
2018-03-02T03:54:45.654Z,10.20
2018-03-02T03:57:11.382Z,10.20
2018-03-02T03:59:37.167Z,9.93
2018-03-02T04:04:35.474Z,12.02
2018-03-02T04:07:01.230Z,10.90
2018-03-02T04:09:27.026Z,13.40
2018-03-02T04:11:52.771Z,16.53
2018-03-02T04:14:18.531Z,11.40
2018-03-02T04:16:44.306Z,14.93
2018-03-02T04:19:10.087Z,21.73
2018-03-02T04:21:35.859Z,12.93
2018-03-02T04:24:01.607Z,13.40
2018-03-02T04:26:27.365Z,12.07
2018-03-02T04:28:53.110Z,12.13
2018-03-02T04:31:18.906Z,11.30
2018-03-02T04:33:44.682Z,10.37
2018-03-02T04:36:10.440Z,10.50
2018-03-02T04:38:36.205Z,10.73
2018-03-02T04:41:01.967Z,10.13
2018-03-02T04:43:27.717Z,16.53
2018-03-02T04:45:53.492Z,11.80
2018-03-02T04:48:19.270Z,12.80
2018-03-02T04:50:45.034Z,12.07
2018-03-02T04:53:10.801Z,8.77
2018-03-02T04:55:36.565Z,10.83
2018-03-02T04:58:02.318Z,12.13
2018-03-02T05:00:28.067Z,10.13
2018-03-02T05:02:53.816Z,9.00
2018-03-02T05:05:19.566Z,10.40
2018-03-02T05:07:45.349Z,10.67
2018-03-02T05:10:11.128Z,10.03
2018-03-02T05:12:36.922Z,9.33
2018-03-02T05:15:02.695Z,8.67
2018-03-02T05:17:28.454Z,10.30
2018-03-02T05:19:54.195Z,9.77
2018-03-02T05:22:19.929Z,8.83
2018-03-02T05:24:45.666Z,8.87
2018-03-02T05:27:11.405Z,9.27
2018-03-02T05:29:37.154Z,9.93
2018-03-02T05:32:02.901Z,10.93
2018-03-02T05:34:28.650Z,10.20
2018-03-02T05:36:54.398Z,10.47
2018-03-02T05:39:20.150Z,9.90
2018-03-02T05:41:45.881Z,12.17
2018-03-02T05:44:11.605Z,11.27
2018-03-02T05:46:37.367Z,10.07
2018-03-02T05:49:03.128Z,10.53
2018-03-02T05:51:28.875Z,9.33
2018-03-02T05:53:54.613Z,10.77
2018-03-02T05:56:20.355Z,10.50
2018-03-02T05:58:46.078Z,8.93
2018-03-02T06:01:11.843Z,9.87
2018-03-02T06:03:37.583Z,9.33
2018-03-02T06:06:03.330Z,9.60
2018-03-02T06:08:29.066Z,10.70
2018-03-02T06:10:54.813Z,11.00
2018-03-02T06:13:20.570Z,11.50
2018-03-02T06:15:46.309Z,12.40
2018-03-02T06:18:12.039Z,11.13
2018-03-02T06:20:37.781Z,10.40
2018-03-02T06:23:03.517Z,9.77
2018-03-02T06:25:29.254Z,9.00
2018-03-02T06:27:55.015Z,9.07
2018-03-02T06:30:20.762Z,10.40
2018-03-02T06:32:46.508Z,10.27
2018-03-02T06:35:12.267Z,11.10
2018-03-02T06:37:38.015Z,11.33
2018-03-02T06:40:03.777Z,12.03
2018-03-02T06:42:29.519Z,11.27
2018-03-02T06:44:55.237Z,11.77
2018-03-02T06:47:21.018Z,12.60
2018-03-02T06:49:46.766Z,11.80
2018-03-02T06:52:12.515Z,11.50
2018-03-02T06:54:38.245Z,12.57
2018-03-02T06:57:03.979Z,12.10
2018-03-02T06:59:29.728Z,11.63
2018-03-02T07:01:55.480Z,12.30
2018-03-02T07:04:21.267Z,12.57
2018-03-02T07:06:47.009Z,12.67
2018-03-02T07:09:12.738Z,12.53
2018-03-02T07:11:38.485Z,12.10
2018-03-02T07:14:04.208Z,11.90
2018-03-02T07:16:29.970Z,13.13
2018-03-02T07:18:55.697Z,13.17
2018-03-02T07:21:21.447Z,13.03
2018-03-02T07:23:47.193Z,12.60
2018-03-02T07:26:12.933Z,12.27
2018-03-02T07:28:38.663Z,13.03
2018-03-02T07:31:04.445Z,13.00
2018-03-02T07:33:30.192Z,13.23
2018-03-02T07:35:55.932Z,12.33
2018-03-02T07:38:21.704Z,11.27
2018-03-02T07:40:47.430Z,12.17
2018-03-02T07:43:13.212Z,13.80
2018-03-02T07:45:38.962Z,11.67
2018-03-02T07:48:04.721Z,10.77
2018-03-02T07:50:30.468Z,11.87
2018-03-02T07:52:56.244Z,11.60
2018-03-02T07:55:21.999Z,12.13
2018-03-02T07:57:47.761Z,11.60
2018-03-02T08:00:13.511Z,12.00
2018-03-02T08:02:39.241Z,11.50
2018-03-02T08:05:05.006Z,12.80
2018-03-02T08:07:30.758Z,12.07
2018-03-02T08:09:56.518Z,11.53
2018-03-02T08:12:22.269Z,12.00
2018-03-02T08:14:48.002Z,10.83
2018-03-02T08:17:13.750Z,11.27
2018-03-02T08:19:39.490Z,12.47
2018-03-02T08:22:05.249Z,11.37
2018-03-02T08:24:31.006Z,11.73
2018-03-02T08:26:56.786Z,11.80
2018-03-02T08:29:22.524Z,12.03
2018-03-02T08:31:48.270Z,11.37
2018-03-02T08:34:14.009Z,11.57
2018-03-02T08:36:39.826Z,11.63
2018-03-02T08:39:05.574Z,11.13
2018-03-02T08:41:31.309Z,10.90
2018-03-02T08:43:57.051Z,11.63
2018-03-02T08:46:22.789Z,11.47
2018-03-02T08:48:48.650Z,11.07
2018-03-02T08:51:14.386Z,11.00
2018-03-02T08:53:40.128Z,11.07
2018-03-02T08:56:05.863Z,11.37
2018-03-02T08:58:31.629Z,11.70
2018-03-02T09:00:57.379Z,11.50
2018-03-02T09:03:23.118Z,10.43
2018-03-02T09:05:48.856Z,9.97
2018-03-02T09:08:14.609Z,9.90
2018-03-02T09:10:40.372Z,9.07
2018-03-02T09:13:06.161Z,10.80
2018-03-02T09:15:31.911Z,9.37
2018-03-02T09:17:57.654Z,10.33
2018-03-02T09:20:23.400Z,9.97
2018-03-02T09:22:49.173Z,9.87
2018-03-02T09:25:14.902Z,10.30
2018-03-02T09:27:40.637Z,9.90
2018-03-02T09:30:06.418Z,9.77
2018-03-02T09:32:32.139Z,9.87
2018-03-02T09:34:57.901Z,10.67
2018-03-02T09:37:23.640Z,11.53
2018-03-02T09:39:49.378Z,17.50
2018-03-02T09:42:15.118Z,16.10
2018-03-02T09:44:40.881Z,17.33
2018-03-02T09:47:06.708Z,20.13
2018-03-02T09:49:32.445Z,20.43
2018-03-02T09:51:58.203Z,19.97
2018-03-02T09:54:23.946Z,18.77
2018-03-02T09:56:49.705Z,20.60
2018-03-02T09:59:15.454Z,18.47
2018-03-02T10:01:41.219Z,17.60
2018-03-02T10:04:06.951Z,16.43
2018-03-02T10:06:32.678Z,16.93
2018-03-02T10:08:58.402Z,17.03
2018-03-02T10:11:24.154Z,13.87
2018-03-02T10:13:49.873Z,13.70
2018-03-02T10:16:15.677Z,12.47
2018-03-02T10:18:41.415Z,11.60
2018-03-02T10:21:07.154Z,11.80
2018-03-02T10:23:32.886Z,11.10
2018-03-02T10:25:58.683Z,11.97
2018-03-02T10:28:24.419Z,12.40
2018-03-02T10:30:50.204Z,11.57
2018-03-02T10:33:15.934Z,10.47
2018-03-02T10:35:41.730Z,9.67
2018-03-02T10:38:07.420Z,8.87
2018-03-02T10:40:33.165Z,9.00
2018-03-02T10:42:58.902Z,8.20
2018-03-02T10:45:24.650Z,9.00
2018-03-02T10:47:50.398Z,8.23
2018-03-02T10:50:16.156Z,9.90
2018-03-02T10:52:41.925Z,9.10
2018-03-02T10:55:07.651Z,9.87
2018-03-02T10:57:33.393Z,10.10
2018-03-02T10:59:59.121Z,9.73
2018-03-02T11:02:24.861Z,9.27
2018-03-02T11:04:56.881Z,9.60
2018-03-02T11:07:22.621Z,9.63
2018-03-02T11:09:48.385Z,9.57
2018-03-02T11:12:14.196Z,10.27
2018-03-02T11:14:39.934Z,9.90
2018-03-02T11:17:05.692Z,9.00
2018-03-02T11:19:31.434Z,9.70
2018-03-02T11:21:57.196Z,10.00
2018-03-02T11:24:22.935Z,9.23
2018-03-02T11:26:48.669Z,9.87
2018-03-02T11:29:14.406Z,8.97
2018-03-02T11:31:40.186Z,10.23
2018-03-02T11:34:05.927Z,9.87
2018-03-02T11:36:31.674Z,10.20
2018-03-02T11:38:57.417Z,9.47
2018-03-02T11:41:23.148Z,9.47
2018-03-02T11:43:48.887Z,9.40
2018-03-02T11:46:14.640Z,9.73
2018-03-02T11:48:40.400Z,9.50
2018-03-02T11:51:06.139Z,9.40
2018-03-02T11:53:31.876Z,10.00
2018-03-02T11:55:57.594Z,9.37
2018-03-02T11:58:23.332Z,9.43
2018-03-02T12:00:49.110Z,9.30
2018-03-02T12:03:14.851Z,9.10
2018-03-02T12:05:40.580Z,9.23
2018-03-02T12:08:06.326Z,8.70
2018-03-02T12:10:32.066Z,9.30
2018-03-02T12:12:57.805Z,8.70
2018-03-02T12:15:23.530Z,9.07
2018-03-02T12:17:49.264Z,8.83
2018-03-02T12:20:14.999Z,8.63
2018-03-02T12:22:40.758Z,9.37
2018-03-02T12:25:06.466Z,9.10
2018-03-02T12:27:32.227Z,8.77
2018-03-02T12:29:57.957Z,10.20
2018-03-02T12:32:23.680Z,9.43
2018-03-02T12:34:49.413Z,9.27
2018-03-02T12:37:15.142Z,11.57
2018-03-02T12:39:40.909Z,8.50
2018-03-02T12:42:06.642Z,8.87
2018-03-02T12:44:32.416Z,8.93
2018-03-02T12:46:58.104Z,10.50
2018-03-02T12:49:23.829Z,8.60
2018-03-02T12:51:49.553Z,8.70
2018-03-02T12:54:15.289Z,8.00
2018-03-02T12:56:41.029Z,7.80
2018-03-02T12:59:06.765Z,8.20
2018-03-02T13:01:32.486Z,8.20
2018-03-02T13:03:58.220Z,8.43
2018-03-02T13:06:23.942Z,8.37
2018-03-02T13:08:49.713Z,8.87
2018-03-02T13:11:15.451Z,8.20
2018-03-02T13:13:41.197Z,7.70
2018-03-02T13:16:06.981Z,9.63
2018-03-02T13:18:42.042Z,6.93
2018-03-02T13:21:07.778Z,7.57
2018-03-02T13:23:33.518Z,8.43
2018-03-02T13:25:59.266Z,9.27
2018-03-02T13:28:37.398Z,8.47
2018-03-02T13:31:03.138Z,7.70
2018-03-02T13:33:41.386Z,8.67
2018-03-02T13:36:09.234Z,8.38
2018-03-02T13:38:34.935Z,8.00
2018-03-02T13:41:13.001Z,8.00
2018-03-02T13:43:38.726Z,8.48
2018-03-02T13:46:04.467Z,9.43
2018-03-02T13:48:42.653Z,9.57
2018-03-02T13:51:08.393Z,10.20
2018-03-02T13:53:34.128Z,9.83
2018-03-02T13:55:59.866Z,10.10
2018-03-02T13:58:25.594Z,9.90
2018-03-02T14:00:51.329Z,9.27
2018-03-02T14:03:29.571Z,9.30
2018-03-02T14:05:55.315Z,9.63
2018-03-02T14:08:21.044Z,10.63
2018-03-02T14:10:47.577Z,10.38
2018-03-02T14:13:13.306Z,8.53
2018-03-02T14:15:39.026Z,10.53
2018-03-02T14:18:04.755Z,9.43
2018-03-02T14:20:30.486Z,9.90
2018-03-02T14:22:56.218Z,10.07
2018-03-02T14:25:22.006Z,8.57
2018-03-02T14:27:47.734Z,11.20
2018-03-02T14:30:13.465Z,8.23
2018-03-02T14:32:39.239Z,9.03
2018-03-02T14:35:04.965Z,9.10
2018-03-02T14:37:30.714Z,7.13
2018-03-02T14:39:56.450Z,9.97
2018-03-02T14:42:22.207Z,7.30
2018-03-02T14:44:47.950Z,7.97
2018-03-02T14:47:13.687Z,8.50
2018-03-02T14:49:39.414Z,9.27
2018-03-02T14:52:05.159Z,10.10
2018-03-02T14:54:30.894Z,9.87
2018-03-02T14:56:56.652Z,9.17
2018-03-02T14:59:22.373Z,9.17
2018-03-02T15:01:48.085Z,9.47
2018-03-02T15:04:13.821Z,8.93
2018-03-02T15:06:39.562Z,9.53
2018-03-02T15:09:05.313Z,8.60
2018-03-02T15:11:31.041Z,8.23
2018-03-02T15:13:56.794Z,7.53
2018-03-02T15:16:22.518Z,8.50
2018-03-02T15:18:48.250Z,8.27
2018-03-02T15:21:14.029Z,9.20
2018-03-02T15:23:39.763Z,6.50
2018-03-02T15:26:05.494Z,8.90
2018-03-02T15:28:31.238Z,8.13
2018-03-02T15:30:56.987Z,9.03
2018-03-02T15:33:22.734Z,8.57
2018-03-02T15:35:48.481Z,9.00
2018-03-02T15:38:14.234Z,10.10
2018-03-02T15:40:39.981Z,8.40
2018-03-02T15:43:05.734Z,8.90
2018-03-02T15:45:31.474Z,8.80
2018-03-02T15:47:57.241Z,10.63
2018-03-02T15:50:22.970Z,11.97
2018-03-02T15:52:48.718Z,8.50
2018-03-02T15:55:14.476Z,11.53
2018-03-02T15:57:40.215Z,8.90
2018-03-02T16:00:05.970Z,10.93
2018-03-02T16:02:31.707Z,10.07
2018-03-02T16:04:57.468Z,9.57
2018-03-02T16:07:23.210Z,10.60
2018-03-02T16:09:48.958Z,10.13
2018-03-02T16:12:14.698Z,10.83
2018-03-02T16:14:40.503Z,9.97
2018-03-02T16:17:06.285Z,10.67
2018-03-02T16:19:32.034Z,11.63
2018-03-02T16:21:57.776Z,10.07
2018-03-02T16:24:23.515Z,10.10
2018-03-02T16:26:49.265Z,12.00
2018-03-02T16:29:15.010Z,10.13
2018-03-02T16:31:40.753Z,9.20
2018-03-02T16:34:06.490Z,11.13
2018-03-02T16:36:32.289Z,9.40
2018-03-02T16:38:58.078Z,10.77
2018-03-02T16:41:23.822Z,8.43
2018-03-02T16:43:49.557Z,8.67
2018-03-02T16:46:15.324Z,9.30
2018-03-02T16:48:41.067Z,9.27
2018-03-02T16:51:06.809Z,8.57
2018-03-02T16:53:32.594Z,9.67
2018-03-02T16:55:58.325Z,9.83
2018-03-02T16:58:24.075Z,8.47
2018-03-02T17:00:50.202Z,9.33
2018-03-02T17:03:15.938Z,9.38
2018-03-02T17:05:41.708Z,10.10
2018-03-02T17:08:07.456Z,10.20
2018-03-02T17:10:33.245Z,8.90
2018-03-02T17:12:58.986Z,10.17
2018-03-02T17:15:24.741Z,9.83
2018-03-02T17:17:50.475Z,10.63
2018-03-02T17:20:16.234Z,12.90
2018-03-02T17:22:41.965Z,12.13
2018-03-02T17:25:07.718Z,13.47
2018-03-02T17:27:33.482Z,15.13
2018-03-02T17:29:59.223Z,15.23
2018-03-02T17:32:25.033Z,10.73
2018-03-02T17:34:51.271Z,11.50
2018-03-02T17:37:17.394Z,7.97
2018-03-02T17:39:43.118Z,7.50
2018-03-02T17:42:08.858Z,16.23
2018-03-02T17:44:34.582Z,14.13
2018-03-02T17:47:00.319Z,11.67
2018-03-02T17:49:26.041Z,8.70
2018-03-02T17:51:51.789Z,12.30
2018-03-02T17:54:17.530Z,10.40
2018-03-02T17:56:43.278Z,9.13
2018-03-02T17:59:09.056Z,9.03
2018-03-02T18:01:34.793Z,10.43
2018-03-02T18:04:00.548Z,11.10
2018-03-02T18:06:26.293Z,11.00
2018-03-02T18:08:52.038Z,11.43
2018-03-02T18:11:17.802Z,11.43
2018-03-02T18:13:43.546Z,11.10
2018-03-02T18:16:09.290Z,10.70
2018-03-02T18:18:35.029Z,10.00
2018-03-02T18:21:00.755Z,10.77
2018-03-02T18:23:26.474Z,10.63
2018-03-02T18:25:52.210Z,7.73
2018-03-02T18:28:17.978Z,7.73
2018-03-02T18:30:43.730Z,8.73
2018-03-02T18:33:09.490Z,7.90
2018-03-02T18:35:35.249Z,8.00
2018-03-02T18:38:00.986Z,8.03
2018-03-02T18:40:26.739Z,8.63
2018-03-02T18:42:52.509Z,7.70
2018-03-02T18:45:18.245Z,8.97
2018-03-02T18:47:44.015Z,9.17
2018-03-02T18:50:09.756Z,7.50
2018-03-02T18:52:35.543Z,9.73
2018-03-02T18:55:01.310Z,7.23
2018-03-02T18:57:27.052Z,9.03
2018-03-02T18:59:52.796Z,11.27
2018-03-02T19:02:18.558Z,10.00
2018-03-02T19:04:44.291Z,9.77
2018-03-02T19:07:10.026Z,9.90
2018-03-02T19:09:35.798Z,8.80
2018-03-02T19:12:01.556Z,9.50
2018-03-02T19:14:27.302Z,13.40
2018-03-02T19:16:53.050Z,10.03
2018-03-02T19:19:18.789Z,10.23
2018-03-02T19:21:44.530Z,9.67
2018-03-02T19:24:10.269Z,14.63
2018-03-02T19:26:35.998Z,11.63
2018-03-02T19:29:01.755Z,17.50
2018-03-02T19:31:27.490Z,11.67
2018-03-02T19:33:53.245Z,11.03
2018-03-02T19:36:18.977Z,8.67
2018-03-02T19:38:44.722Z,10.87
2018-03-02T19:41:10.469Z,12.63
2018-03-02T19:43:36.269Z,10.57
2018-03-02T19:46:02.006Z,9.93
2018-03-02T19:48:27.770Z,10.47
2018-03-02T19:50:53.526Z,9.53
2018-03-02T19:53:19.265Z,10.27
2018-03-02T19:55:45.013Z,10.40
2018-03-02T19:58:10.737Z,10.67
2018-03-02T20:00:36.487Z,11.17
2018-03-02T20:03:02.222Z,11.17
2018-03-02T20:05:27.970Z,11.00
2018-03-02T20:07:53.703Z,11.70
2018-03-02T20:10:19.450Z,11.13
2018-03-02T20:12:45.191Z,11.73
2018-03-02T20:15:11.052Z,11.70
2018-03-02T20:17:36.834Z,9.60
2018-03-02T20:20:02.574Z,12.17
2018-03-02T20:22:28.297Z,13.00
2018-03-02T20:24:54.042Z,12.33
2018-03-02T20:27:19.781Z,13.63
2018-03-02T20:29:45.531Z,15.17
2018-03-02T20:32:11.270Z,13.77
2018-03-02T20:34:37.006Z,12.73
2018-03-02T20:37:09.773Z,13.23
2018-03-02T20:39:35.514Z,12.43
2018-03-02T20:42:01.258Z,15.37
2018-03-02T20:44:26.999Z,13.23
2018-03-02T20:46:52.838Z,15.07
2018-03-02T20:49:18.580Z,13.07
2018-03-02T20:51:44.323Z,14.30
2018-03-02T20:54:10.061Z,16.87
2018-03-02T20:56:35.833Z,16.10
2018-03-02T20:59:01.582Z,15.30
2018-03-02T21:01:27.387Z,14.73
2018-03-02T21:03:53.108Z,15.87
2018-03-02T21:06:18.880Z,15.53
2018-03-02T21:08:44.670Z,15.30
2018-03-02T21:11:10.429Z,14.70
2018-03-02T21:13:36.158Z,15.47
2018-03-02T21:16:01.891Z,15.00
2018-03-02T21:18:27.647Z,15.47
2018-03-02T21:20:53.374Z,15.17
2018-03-02T21:23:19.133Z,16.20
2018-03-02T21:25:44.870Z,15.53
2018-03-02T21:28:10.624Z,14.87
2018-03-02T21:30:36.374Z,15.37
2018-03-02T21:33:02.129Z,16.13
2018-03-02T21:35:27.872Z,16.07
2018-03-02T21:37:53.631Z,15.07
2018-03-02T21:40:19.364Z,15.33
2018-03-02T21:42:45.134Z,15.53
2018-03-02T21:45:10.857Z,15.73
2018-03-02T21:47:36.601Z,16.20
2018-03-02T21:50:02.339Z,16.27
2018-03-02T21:52:28.083Z,15.67
2018-03-02T21:54:53.830Z,16.13
2018-03-02T21:57:19.597Z,15.50
2018-03-02T21:59:45.353Z,14.47
2018-03-02T22:02:11.106Z,15.30
2018-03-02T22:04:36.848Z,16.37
2018-03-02T22:07:02.606Z,15.97
2018-03-02T22:09:28.359Z,16.93
2018-03-02T22:11:54.111Z,15.63
2018-03-02T22:14:19.847Z,16.40
2018-03-02T22:16:45.589Z,16.63
2018-03-02T22:19:11.338Z,16.77
2018-03-02T22:21:37.079Z,15.63
2018-03-02T22:24:02.871Z,16.10
2018-03-02T22:26:28.676Z,16.60
2018-03-02T22:28:54.426Z,15.87
2018-03-02T22:31:20.169Z,17.57
2018-03-02T22:33:45.922Z,16.17
2018-03-02T22:36:11.651Z,17.33
2018-03-02T22:38:37.396Z,15.83
2018-03-02T22:41:03.131Z,14.90
2018-03-02T22:43:28.889Z,16.80
2018-03-02T22:45:54.623Z,16.57
2018-03-02T22:48:20.386Z,17.10
2018-03-02T22:50:46.119Z,17.27
2018-03-02T22:53:11.888Z,16.27
2018-03-02T22:55:37.639Z,16.70
2018-03-02T22:58:03.386Z,17.17
2018-03-02T23:00:29.182Z,16.83
2018-03-02T23:02:54.890Z,17.63
2018-03-02T23:05:20.632Z,16.37
2018-03-02T23:07:46.371Z,16.93
2018-03-02T23:10:12.121Z,16.23
2018-03-02T23:12:37.865Z,15.57
2018-03-02T23:15:03.646Z,16.80
2018-03-02T23:17:29.411Z,17.17
2018-03-02T23:19:55.182Z,17.80
2018-03-02T23:22:20.915Z,18.37
2018-03-02T23:24:46.670Z,17.27
2018-03-02T23:27:12.427Z,17.03
2018-03-02T23:29:38.175Z,15.80
2018-03-02T23:32:03.926Z,17.73
2018-03-02T23:34:29.687Z,16.33
2018-03-02T23:36:55.419Z,16.97
2018-03-02T23:39:21.153Z,17.77
2018-03-02T23:41:46.900Z,17.77
2018-03-02T23:44:12.655Z,16.50
2018-03-02T23:46:38.415Z,17.80
2018-03-02T23:49:04.158Z,17.97
2018-03-02T23:51:29.898Z,17.60
2018-03-02T23:53:55.631Z,17.57
2018-03-02T23:56:21.377Z,18.60
2018-03-02T23:58:47.130Z,18.43
